Time;durP1;ratioP1;P1;durP2;ratioP2;P2;SDS_P1;SDS_P2;PMS_P1;PMS_P2;Temp;Humidity;BMP_temperature;BMP_pressure;BME280_temperature;BME280_humidity;BME280_pressure;Samples;Min_cycle;Max_cycle;Signal;HPM_P1;HPM_P2
2021/06/21 00:00:25;;;;;;;10.77;8.05;;;20.10;99.90;;;20.24;72.41;100692.28;5136017;27;20054;-68
2021/06/21 00:02:54;;;;;;;10.65;8.35;;;20.00;99.90;;;20.16;72.59;100691.72;5136031;27;20051;-68
2021/06/21 00:05:23;;;;;;;9.70;8.20;;;19.90;99.90;;;19.61;72.87;100588.69;5135942;27;20043;-68
2021/06/21 00:07:52;;;;;;;13.13;8.80;;;19.90;99.90;;;20.18;72.92;100697.94;5135663;27;20047;-68
2021/06/21 00:10:21;;;;;;;13.45;9.55;;;19.90;99.90;;;20.20;72.87;100701.41;5135619;27;20035;-67
2021/06/21 00:12:51;;;;;;;10.32;8.32;;;19.90;99.90;;;20.20;72.65;100700.53;5117461;27;20051;-68
2021/06/21 00:15:23;;;;;;;11.82;8.70;;;19.90;99.90;;;20.15;72.96;100706.06;5117551;27;20043;-68
2021/06/21 00:17:53;;;;;;;14.52;9.10;;;19.90;99.90;;;20.20;73.07;100709.47;5135691;27;20396;-68
2021/06/21 00:20:23;;;;;;;11.73;8.38;;;19.90;99.90;;;20.14;73.11;100709.72;5135668;27;20073;-68
2021/06/21 00:22:53;;;;;;;15.57;8.65;;;19.90;99.90;;;20.16;72.72;100713.22;5135692;27;20047;-68
2021/06/21 00:25:24;;;;;;;13.65;9.43;;;19.90;99.90;;;20.10;72.93;100713.47;5135264;27;20398;-68
2021/06/21 00:27:54;;;;;;;12.40;8.48;;;19.90;99.90;;;19.57;72.96;100629.13;5135544;27;20455;-68
2021/06/21 00:30:24;;;;;;;14.32;8.23;;;19.80;99.90;;;20.13;72.79;100731.28;5117040;27;20137;-68
2021/06/21 00:32:53;;;;;;;13.52;8.55;;;19.90;99.90;;;20.12;72.94;100730.41;5135134;27;20540;-68
2021/06/21 00:35:21;;;;;;;16.33;9.13;;;19.80;99.90;;;20.10;73.12;100734.09;5135158;27;20043;-68
2021/06/21 00:37:51;;;;;;;12.98;8.75;;;19.80;99.90;;;20.06;73.14;100729.81;5116919;27;20051;-68
2021/06/21 00:40:19;;;;;;;10.98;8.50;;;19.80;99.90;;;20.05;73.43;100731.63;5135222;27;20047;-68
2021/06/21 00:42:49;;;;;;;12.18;8.05;;;19.80;99.90;;;19.98;72.91;100722.09;5116814;27;20428;-68
2021/06/21 00:45:22;;;;;;;15.50;8.35;;;19.80;99.90;;;19.84;73.04;100704.88;5116729;27;20083;-68
2021/06/21 00:47:53;;;;;;;11.85;7.75;;;19.70;99.90;;;19.99;73.13;100718.47;5134926;27;20162;-68
2021/06/21 00:50:23;;;;;;;13.68;7.78;;;19.70;99.90;;;19.92;72.86;100724.22;5135142;27;20045;-68
2021/06/21 00:52:55;;;;;;;9.40;7.75;;;19.70;99.90;;;19.82;72.98;100696.03;5115866;27;20063;-68
2021/06/21 00:55:24;;;;;;;12.02;7.57;;;19.60;99.90;;;19.83;73.31;100714.72;5135114;27;20050;-68
2021/06/21 00:57:53;;;;;;;17.23;8.38;;;19.60;99.90;;;19.71;73.27;100718.84;5134857;27;20079;-68
2021/06/21 01:00:27;;;;;;;10.98;7.80;;;19.50;99.90;;;19.72;73.60;100717.88;5134577;27;20097;-68
2021/06/21 01:02:58;;;;;;;15.50;8.32;;;19.40;99.90;;;19.61;73.54;100701.38;5134583;27;20454;-68
2021/06/21 01:05:31;;;;;;;12.68;7.63;;;19.40;99.90;;;19.56;73.99;100689.13;5116352;27;20100;-68
2021/06/21 01:07:59;;;;;;;11.57;7.97;;;19.40;99.90;;;19.66;73.93;100706.56;5134527;27;20057;-68
2021/06/21 01:10:29;;;;;;;8.82;7.30;;;19.40;99.90;;;19.58;74.08;100703.34;5134423;27;20043;-68
2021/06/21 01:13:33;;;;;;;8.82;7.72;;;19.30;99.90;;;19.59;74.43;100705.06;5134971;27;20074;-68
2021/06/21 01:16:14;;;;;;;12.27;7.97;;;19.30;99.90;;;19.51;74.38;100713.47;5116023;27;20446;-68
2021/06/21 01:18:55;;;;;;;11.05;7.68;;;19.30;99.90;;;19.48;74.61;100708.25;5116222;27;20404;-68
2021/06/21 01:22:25;;;;;;;13.95;7.88;;;19.30;99.90;;;19.41;74.72;100712.13;5134536;27;20038;-68
2021/06/21 01:25:14;;;;;;;14.95;8.30;;;19.30;99.90;;;19.30;75.55;100714.34;5134412;27;20054;-68
2021/06/21 01:27:52;;;;;;;9.73;8.23;;;19.10;99.90;;;19.16;75.70;100695.31;5134332;27;20138;-68
2021/06/21 01:30:24;;;;;;;14.07;9.00;;;19.00;99.90;;;19.28;76.05;100705.50;5115863;27;20047;-68
2021/06/21 01:32:59;;;;;;;13.38;7.95;;;19.00;99.90;;;19.18;76.15;100701.47;5134130;27;20096;-68
2021/06/21 01:35:35;;;;;;;12.63;8.25;;;19.00;99.90;;;19.11;75.94;100702.66;5115792;27;20142;-68
2021/06/21 01:38:09;;;;;;;8.77;7.72;;;18.90;99.90;;;19.03;75.90;100698.56;5134471;27;20043;-68
2021/06/21 01:40:42;;;;;;;9.68;7.05;;;18.80;99.90;;;18.98;76.01;100704.13;5134004;27;20400;-68
2021/06/21 01:43:16;;;;;;;11.38;7.13;;;18.70;99.90;;;18.92;76.67;100701.69;5134231;27;20043;-68
2021/06/21 01:45:45;;;;;;;9.25;7.10;;;18.70;99.90;;;18.99;76.73;100710.38;5134072;27;20120;-68
2021/06/21 01:48:17;;;;;;;14.40;8.07;;;18.70;99.90;;;18.96;76.73;100702.44;5134042;27;20076;-70
2021/06/21 01:50:48;;;;;;;9.40;7.50;;;18.70;99.90;;;18.82;76.89;100682.44;5134388;27;20433;-69
2021/06/21 01:53:21;;;;;;;11.93;7.75;;;18.70;99.90;;;18.78;76.74;100677.25;5134077;27;20047;-68
2021/06/21 01:55:58;;;;;;;9.88;7.20;;;18.60;99.90;;;18.85;76.92;100694.84;5133820;27;20051;-68
2021/06/21 01:58:31;;;;;;;9.52;7.70;;;18.60;99.90;;;18.86;76.65;100704.63;5134034;27;20076;-68
2021/06/21 02:01:01;;;;;;;12.18;7.40;;;18.60;99.90;;;18.88;77.02;100700.06;5133976;28;20069;-68
2021/06/21 02:03:32;;;;;;;8.80;6.72;;;18.60;99.90;;;18.92;76.89;100697.22;5135411;27;20047;-68
2021/06/21 02:06:03;;;;;;;10.65;6.70;;;18.60;99.90;;;18.79;77.09;100693.25;5140839;27;20109;-68
2021/06/21 02:08:32;;;;;;;18.77;7.57;;;18.50;99.90;;;18.78;77.11;100699.56;5140745;27;20054;-68
2021/06/21 02:11:01;;;;;;;11.70;7.00;;;18.50;99.90;;;18.83;77.25;100702.91;5140439;27;20074;-68
2021/06/21 02:13:30;;;;;;;9.10;6.47;;;18.50;99.90;;;18.79;77.06;100700.44;5122216;27;20055;-68
2021/06/21 02:15:59;;;;;;;8.55;6.65;;;18.50;99.90;;;18.80;76.98;100702.19;5141037;27;20097;-68
2021/06/21 02:18:29;;;;;;;7.20;6.45;;;18.50;99.90;;;18.75;76.96;100698.81;5140636;27;20047;-68
2021/06/21 02:20:59;;;;;;;9.40;6.07;;;18.50;99.90;;;18.62;76.70;100673.47;5140710;27;20079;-68
2021/06/21 02:23:27;;;;;;;8.50;6.55;;;18.50;99.90;;;18.73;76.97;100695.34;5122133;27;20039;-68
2021/06/21 02:25:58;;;;;;;8.20;6.10;;;18.50;99.90;;;18.75;77.03;100707.75;5140430;27;20047;-68
2021/06/21 02:28:29;;;;;;;8.98;6.70;;;18.50;99.90;;;18.71;77.19;100692.72;5140633;27;20062;-68
2021/06/21 02:30:59;;;;;;;;;;;18.50;99.90;;;18.73;77.17;100692.66;5141089;27;20047;-68
2021/06/21 02:33:27;;;;;;;10.55;6.82;;;18.50;99.90;;;18.69;77.25;100699.06;5140565;27;19919;-68
2021/06/21 02:35:57;;;;;;;7.60;6.15;;;18.40;99.90;;;18.68;77.01;100698.19;5140499;27;20067;-68
2021/06/21 02:38:26;;;;;;;8.85;6.95;;;18.40;99.90;;;18.74;77.26;100703.31;5140433;27;20082;-68
2021/06/21 02:40:55;;;;;;;9.70;6.70;;;18.40;99.90;;;18.74;77.24;100689.91;5140432;27;20047;-68
2021/06/21 02:43:23;;;;;;;10.55;7.07;;;18.50;99.90;;;18.70;77.46;100698.13;5140467;27;20046;-68
2021/06/21 02:45:52;;;;;;;10.95;7.15;;;18.40;99.90;;;18.70;77.49;100707.03;5140374;27;20079;-68
2021/06/21 02:48:21;;;;;;;13.13;7.20;;;18.40;99.90;;;18.76;77.19;100706.78;5140108;27;20050;-68
2021/06/21 02:50:53;;;;;;;9.27;7.30;;;18.50;99.90;;;18.74;77.12;100703.31;5140337;27;20043;-68
2021/06/21 02:53:33;;;;;;;12.07;7.13;;;18.50;99.90;;;18.71;76.89;100703.44;5140128;27;20039;-68
2021/06/21 02:56:08;;;;;;;9.43;6.72;;;18.40;99.90;;;18.70;77.12;100699.00;5140301;27;20043;-68
2021/06/21 02:58:40;;;;;;;8.77;6.82;;;18.40;99.90;;;18.69;77.32;100705.31;5140307;27;20047;-68
2021/06/21 03:01:12;;;;;;;10.48;7.47;;;18.40;99.90;;;18.69;77.09;100699.06;5140287;27;20067;-68
2021/06/21 03:03:48;;;;;;;10.13;6.63;;;18.40;99.90;;;18.69;77.10;100699.06;5121591;27;20137;-68
2021/06/21 03:06:19;;;;;;;9.77;6.93;;;18.50;99.90;;;18.57;77.27;100689.72;5140272;27;20054;-68
2021/06/21 03:08:50;;;;;;;8.45;6.70;;;18.40;99.90;;;18.55;77.99;100688.03;5140260;27;20043;-68
2021/06/21 03:11:19;;;;;;;10.48;7.20;;;18.30;99.90;;;18.49;77.80;100688.25;5139926;27;20092;-68
2021/06/21 03:13:52;;;;;;;7.43;6.50;;;18.30;99.90;;;18.55;77.83;100696.06;5121639;27;20444;-68
2021/06/21 03:16:22;;;;;;;8.93;6.50;;;18.30;99.90;;;18.47;77.91;100685.66;5137109;27;20043;-68
2021/06/21 03:18:53;;;;;;;12.13;7.00;;;18.20;99.90;;;18.40;78.15;100680.56;5118391;27;20047;-68
2021/06/21 03:21:23;;;;;;;13.10;7.55;;;18.20;99.90;;;18.35;78.38;100675.38;5136919;27;20051;-68
2021/06/21 03:23:56;;;;;;;12.20;7.23;;;18.10;99.90;;;18.17;78.29;100652.03;5136543;27;20505;-68
2021/06/21 03:26:26;;;;;;;10.00;7.30;;;18.00;99.90;;;18.28;78.78;100671.22;5136399;27;20288;-68
2021/06/21 03:28:56;;;;;;;9.25;7.90;;;18.00;99.90;;;18.32;78.61;100667.47;5136576;27;20058;-68
2021/06/21 03:31:25;;;;;;;9.27;7.47;;;18.00;99.90;;;18.24;78.65;100669.59;5136419;27;20507;-68
2021/06/21 03:33:56;;;;;;;11.23;8.10;;;18.00;99.90;;;18.14;78.66;100664.66;5136557;27;20046;-68
2021/06/21 03:36:24;;;;;;;14.55;8.48;;;18.00;99.90;;;17.40;79.00;100533.69;5136673;27;20092;-68
2021/06/21 03:38:54;;;;;;;11.35;7.70;;;17.90;99.90;;;18.16;78.98;100666.31;5118004;27;20476;-68
2021/06/21 03:41:23;;;;;;;11.32;7.57;;;17.90;99.90;;;18.18;78.69;100669.81;5117923;27;20047;-67
2021/06/21 03:43:51;;;;;;;12.25;7.47;;;18.00;99.90;;;18.10;79.27;100666.56;5136369;27;20055;-68
2021/06/21 03:46:19;;;;;;;9.52;8.07;;;17.80;99.90;;;18.11;79.21;100656.72;5136561;27;20092;-68
2021/06/21 03:48:48;;;;;;;11.18;8.63;;;17.80;99.90;;;18.09;79.30;100659.47;5136255;27;20061;-68
2021/06/21 03:51:18;;;;;;;10.70;8.07;;;17.90;99.90;;;17.52;79.03;100576.03;5136235;27;20082;-68
2021/06/21 03:53:46;;;;;;;11.23;7.57;;;17.80;99.90;;;18.07;79.56;100664.00;5135935;27;20493;-68
2021/06/21 03:56:16;;;;;;;12.40;7.50;;;17.80;99.90;;;17.93;79.23;100656.50;5135735;27;20035;-68
2021/06/21 03:58:48;;;;;;;12.10;8.00;;;17.70;99.90;;;18.04;79.37;100662.31;5135986;27;20047;-68
2021/06/21 04:01:17;;;;;;;9.35;8.05;;;17.80;99.90;;;17.91;79.38;100658.38;5136101;27;20043;-68
2021/06/21 04:03:45;;;;;;;11.68;7.63;;;17.70;99.90;;;17.96;79.47;100666.22;5136023;27;20039;-68
2021/06/21 04:06:14;;;;;;;13.43;7.78;;;17.70;99.90;;;17.97;79.04;100665.28;5136027;27;20043;-68
2021/06/21 04:08:43;;;;;;;9.65;7.80;;;17.70;99.90;;;17.99;79.23;100668.78;5117535;27;20403;-68
2021/06/21 04:11:11;;;;;;;10.60;7.75;;;17.70;99.90;;;18.04;79.31;100680.16;5135751;27;20440;-68
2021/06/21 04:13:41;;;;;;;12.30;7.32;;;17.80;99.90;;;18.05;78.95;100673.91;5135831;27;20392;-68
2021/06/21 04:16:09;;;;;;;10.00;7.87;;;17.80;99.90;;;18.09;79.10;100672.84;5135744;27;20086;-68
2021/06/21 04:18:38;;;;;;;10.27;8.13;;;17.80;99.90;;;18.13;78.97;100681.63;5135639;27;20058;-68
2021/06/21 04:21:06;;;;;;;12.57;8.57;;;17.80;99.90;;;17.62;78.87;100588.13;5135902;27;20069;-68
2021/06/21 04:23:37;;;;;;;12.02;8.10;;;17.80;99.90;;;18.06;78.59;100675.63;5135617;27;20099;-68
2021/06/21 04:26:05;;;;;;;10.75;8.18;;;17.80;99.90;;;18.12;78.70;100677.22;5135269;27;20051;-68
2021/06/21 04:28:33;;;;;;;10.88;7.68;;;17.80;99.90;;;18.08;78.60;100671.09;5115659;27;20051;-68
2021/06/21 04:31:03;;;;;;;10.32;7.85;;;17.80;99.90;;;18.09;78.36;100675.53;5134960;27;20082;-68
2021/06/21 04:33:32;;;;;;;9.80;7.40;;;17.80;99.90;;;18.14;78.56;100657.47;5135211;27;20047;-68
2021/06/21 04:36:00;;;;;;;11.57;7.93;;;17.90;99.90;;;17.95;78.58;100643.94;5135182;27;20048;-68
2021/06/21 04:38:29;;;;;;;13.10;8.60;;;17.80;99.90;;;18.05;78.52;100668.56;5135211;27;20047;-68
2021/06/21 04:40:57;;;;;;;13.27;9.15;;;17.80;99.90;;;18.06;78.60;100667.59;5135262;27;20134;-68
2021/06/21 04:43:26;;;;;;;9.93;7.15;;;17.80;99.90;;;18.07;78.49;100669.38;5134892;27;20412;-68
2021/06/21 04:45:54;;;;;;;12.27;7.68;;;17.80;99.90;;;18.15;78.25;100675.31;5135127;27;20043;-68
2021/06/21 04:48:24;;;;;;;13.52;7.82;;;17.90;99.90;;;18.15;78.32;100674.41;5135148;27;20075;-68
2021/06/21 04:50:54;;;;;;;10.77;8.13;;;17.90;99.90;;;18.14;78.12;100670.88;5135128;27;20047;-68
2021/06/21 04:53:22;;;;;;;10.73;7.10;;;17.80;99.90;;;18.09;78.04;100672.84;5135036;27;20059;-68
2021/06/21 04:55:51;;;;;;;9.20;8.25;;;17.80;99.90;;;18.09;78.02;100669.31;5135013;27;20084;-68
2021/06/21 04:58:19;;;;;;;11.68;7.97;;;17.80;99.90;;;18.08;78.08;100679.13;5134823;27;20047;-68
2021/06/21 05:00:48;;;;;;;12.32;8.25;;;17.80;99.90;;;18.14;78.01;100672.69;5116611;27;20054;-68
2021/06/21 05:03:16;;;;;;;12.75;7.80;;;17.80;99.90;;;18.16;78.06;100670.78;5134560;27;20591;-68
2021/06/21 05:05:46;;;;;;;15.43;8.52;;;17.90;99.90;;;18.16;77.81;100671.69;5134924;27;20398;-68
2021/06/21 05:08:14;;;;;;;12.73;7.47;;;17.90;99.90;;;18.10;77.87;100669.22;5134705;27;20054;-68
2021/06/21 05:10:43;;;;;;;11.30;8.18;;;17.80;99.90;;;17.99;78.07;100663.44;5134492;27;20277;-68
2021/06/21 05:13:11;;;;;;;11.23;8.07;;;17.80;99.90;;;18.04;78.35;100672.13;5116486;27;20385;-68
2021/06/21 05:15:40;;;;;;;13.50;7.90;;;17.70;99.90;;;18.09;78.15;100671.97;5134280;27;20043;-68
2021/06/21 05:18:08;;;;;;;10.95;7.75;;;17.80;99.90;;;18.07;78.20;100665.81;5134618;27;20043;-68
2021/06/21 05:20:37;;;;;;;11.05;7.68;;;17.80;99.90;;;18.10;78.32;100666.56;5134210;27;20047;-68
2021/06/21 05:23:06;;;;;;;13.05;8.10;;;17.80;99.90;;;18.01;78.07;100657.09;5134378;27;20040;-68
2021/06/21 05:25:36;;;;;;;9.45;7.13;;;17.80;99.90;;;18.03;78.11;100671.28;5134226;27;20039;-68
2021/06/21 05:28:05;;;;;;;10.45;7.55;;;17.80;99.90;;;18.06;78.05;100674.78;5134089;27;20366;-68
2021/06/21 05:30:33;;;;;;;10.85;7.38;;;17.80;99.90;;;17.98;77.85;100665.22;5134368;27;20100;-68
2021/06/21 05:33:02;;;;;;;12.18;7.43;;;17.70;99.90;;;17.99;77.95;100669.66;5134286;27;20043;-68
2021/06/21 05:35:30;;;;;;;10.73;7.68;;;17.70;99.90;;;18.05;77.91;100657.84;5134227;27;20043;-68
2021/06/21 05:38:00;;;;;;;;;;;17.70;99.90;;;17.98;78.13;100670.56;5134482;27;20044;-68
2021/06/21 05:40:30;;;;;;;10.32;7.05;;;17.70;99.90;;;18.06;77.97;100682.81;5115463;27;19955;-68
2021/06/21 05:42:59;;;;;;;10.25;7.72;;;17.70;99.90;;;18.03;78.12;100678.44;5115669;27;20051;-68
2021/06/21 05:45:28;;;;;;;8.35;7.30;;;17.80;99.90;;;18.04;78.19;100677.50;5115615;27;20047;-68
2021/06/21 05:47:56;;;;;;;9.75;7.15;;;17.70;99.90;;;18.02;77.67;100682.06;5133990;27;20031;-68
2021/06/21 05:50:25;;;;;;;10.75;7.07;;;17.80;99.90;;;18.03;77.86;100687.34;5115570;27;20092;-68
2021/06/21 05:52:54;;;;;;;8.90;7.63;;;17.70;99.90;;;18.06;78.14;100689.03;5133994;27;20078;-68
2021/06/21 05:55:23;;;;;;;9.52;7.45;;;17.80;99.90;;;17.93;78.21;100671.69;5133804;27;20460;-68
2021/06/21 05:57:54;;;;;;;9.88;7.18;;;17.80;99.90;;;17.98;78.20;100700.00;5115577;27;20082;-68
2021/06/21 06:00:24;;;;;;;10.50;7.07;;;17.80;99.90;;;17.90;78.08;100682.50;5133865;27;20077;-68
2021/06/21 06:02:52;;;;;;;10.85;6.75;;;17.80;99.90;;;18.12;77.81;100718.25;5133662;28;20472;-68
2021/06/21 06:05:22;;;;;;;8.35;6.85;;;17.80;99.90;;;18.19;78.25;100714.41;5133806;28;20118;-68
2021/06/21 06:07:51;;;;;;;10.00;7.00;;;17.90;99.90;;;18.15;78.27;100714.59;5133792;28;20050;-68
2021/06/21 06:10:20;;;;;;;10.93;7.15;;;17.90;99.90;;;18.15;77.95;100718.13;5115336;28;20047;-68
2021/06/21 06:12:48;;;;;;;8.25;6.47;;;17.90;99.90;;;18.05;77.97;100703.34;5133729;28;20473;-68
2021/06/21 06:15:19;;;;;;;11.48;7.35;;;17.90;99.90;;;18.15;77.99;100718.13;5133665;28;20088;-68
2021/06/21 06:17:47;;;;;;;;;;;17.80;99.90;;;18.13;77.75;100722.69;5134313;28;20129;-68
2021/06/21 06:20:17;;;;;;;9.38;6.57;;;17.90;99.90;;;18.16;77.14;100730.56;5133683;28;19924;-68
2021/06/21 06:22:46;;;;;;;7.30;6.07;;;17.90;99.90;;;18.09;77.37;100737.09;5133429;28;20386;-68
2021/06/21 06:25:15;;;;;;;7.80;6.30;;;17.80;99.90;;;18.13;77.92;100743.22;5133722;28;20043;-68
2021/06/21 06:27:45;;;;;;;10.18;6.35;;;17.80;99.90;;;18.11;78.02;100745.06;5133751;28;20093;-68
2021/06/21 06:30:18;;;;;;;9.57;6.53;;;17.80;99.90;;;18.13;78.04;100744.09;5133413;28;20373;-68
2021/06/21 06:32:47;;;;;;;6.50;5.55;;;17.80;99.90;;;18.02;77.86;100722.22;5115364;28;20863;-68
2021/06/21 06:35:16;;;;;;;7.00;5.40;;;17.90;99.90;;;18.17;78.06;100747.53;5133701;28;20039;-68
2021/06/21 06:37:47;;;;;;;6.80;5.77;;;17.90;99.90;;;18.19;77.94;100749.22;5115194;28;20104;-68
2021/06/21 06:40:16;;;;;;;7.27;5.53;;;17.90;99.90;;;18.17;77.48;100745.72;5133502;28;20088;-68
2021/06/21 06:42:46;;;;;;;7.25;5.47;;;17.90;99.90;;;18.00;77.52;100732.09;5133514;28;20077;-68
2021/06/21 06:45:16;;;;;;;7.38;6.22;;;17.80;99.90;;;18.13;77.60;100756.59;5133263;28;20463;-68
2021/06/21 06:47:46;;;;;;;8.65;5.78;;;17.80;99.90;;;18.17;77.80;100752.88;5133569;28;20071;-68
2021/06/21 06:50:16;;;;;;;7.38;5.38;;;17.90;99.90;;;18.09;77.94;100760.31;5133241;27;20564;-68
2021/06/21 06:52:47;;;;;;;7.72;5.60;;;17.80;99.90;;;18.04;77.74;100760.47;5137391;27;20047;-68
2021/06/21 06:58:02;;;;;;;6.50;5.82;;;17.80;99.90;;;18.12;77.76;100777.13;5137074;27;20050;-68
2021/06/21 07:00:33;;;;;;;7.63;6.20;;;17.80;99.90;;;18.18;77.89;100776.91;5137139;27;20027;-68
2021/06/21 07:03:03;;;;;;;7.25;6.13;;;17.90;99.90;;;18.13;77.54;100778.03;5118842;27;20057;-68
2021/06/21 07:05:32;;;;;;;8.93;6.00;;;17.90;99.90;;;18.15;77.90;100776.16;5137188;27;20104;-68
2021/06/21 07:08:00;;;;;;;10.57;6.60;;;17.80;99.90;;;18.18;77.59;100779.59;5137006;27;20297;-68
2021/06/21 07:10:29;;;;;;;8.60;5.97;;;17.90;99.90;;;18.13;77.59;100781.59;5136997;27;20043;-68
2021/06/21 07:12:59;;;;;;;9.20;6.13;;;17.90;99.90;;;18.02;77.59;100784.63;5137163;27;20134;-68
2021/06/21 07:15:28;;;;;;;8.02;6.00;;;17.80;99.90;;;18.03;77.92;100789.06;5136698;27;20053;-68
2021/06/21 07:17:56;;;;;;;7.70;5.85;;;17.80;99.90;;;18.11;78.07;100818.25;5136899;27;20039;-68
2021/06/21 07:20:26;;;;;;;9.45;5.82;;;17.80;99.90;;;18.19;77.96;100799.22;5136766;27;20434;-68
2021/06/21 07:22:55;;;;;;;10.20;5.83;;;17.90;99.90;;;18.11;77.76;100799.50;5136777;27;20043;-68
2021/06/21 07:25:23;;;;;;;8.43;6.22;;;17.80;99.90;;;18.11;77.81;100809.31;5136566;27;20403;-68
2021/06/21 07:27:55;;;;;;;7.90;6.13;;;17.80;99.90;;;18.04;78.01;100822.94;5136418;27;20415;-68
2021/06/21 07:30:24;;;;;;;10.60;5.97;;;17.80;99.90;;;18.17;77.88;100812.66;5136720;27;20060;-68
2021/06/21 07:32:53;;;;;;;8.85;5.78;;;17.90;99.90;;;18.10;77.98;100813.81;5136610;27;20051;-68
2021/06/21 07:35:22;;;;;;;7.68;6.05;;;17.90;99.90;;;18.23;77.93;100816.94;5136563;27;20078;-68
2021/06/21 07:37:53;;;;;;;7.10;6.15;;;17.90;99.90;;;18.22;77.78;100820.50;5136538;27;20077;-68
2021/06/21 07:40:22;;;;;;;7.93;6.40;;;17.90;99.90;;;18.21;77.69;100819.66;5136119;27;20473;-68
2021/06/21 07:42:51;;;;;;;7.47;6.13;;;17.90;99.90;;;18.26;77.97;100823.03;5136388;27;20050;-68
2021/06/21 07:45:19;;;;;;;9.32;6.53;;;17.90;99.90;;;18.25;77.86;100831.13;5136309;27;20039;-68
2021/06/21 07:47:48;;;;;;;9.88;6.45;;;18.00;99.90;;;18.24;77.84;100830.25;5136321;27;20458;-68
2021/06/21 07:50:16;;;;;;;8.18;6.80;;;18.00;99.90;;;18.29;78.14;100836.28;5136338;27;20069;-68
2021/06/21 07:52:45;;;;;;;8.27;5.93;;;18.00;99.90;;;18.35;77.82;100844.13;5117826;27;20492;-68
2021/06/21 07:55:15;;;;;;;11.05;5.95;;;18.10;99.90;;;18.33;77.96;100834.41;5117732;27;20483;-69
2021/06/21 07:57:43;;;;;;;8.52;6.40;;;18.10;99.90;;;18.31;77.46;100842.47;5135910;27;20107;-68
2021/06/21 08:00:14;;;;;;;8.23;5.95;;;18.00;99.90;;;18.33;77.43;100845.97;5136044;27;20050;-68
2021/06/21 08:02:42;;;;;;;6.68;6.00;;;18.00;99.90;;;18.30;77.81;100847.91;5135827;27;20043;-68
2021/06/21 08:05:11;;;;;;;7.60;6.10;;;18.10;99.90;;;18.32;78.04;100841.56;5135955;27;20459;-68
2021/06/21 08:07:40;;;;;;;8.23;6.20;;;18.00;99.90;;;18.36;77.62;100851.22;5135730;27;20043;-68
2021/06/21 08:10:14;;;;;;;10.05;5.80;;;18.00;99.90;;;18.36;77.74;100861.94;5135979;27;20047;-69
2021/06/21 08:12:44;;;;;;;11.70;5.63;;;18.10;99.90;;;18.37;77.72;100863.69;5135774;27;20055;-68
2021/06/21 08:15:14;;;;;;;9.73;6.78;;;18.10;99.90;;;18.39;77.92;100861.81;5135786;27;20038;-68
2021/06/21 08:17:43;;;;;;;8.85;6.15;;;18.10;99.90;;;18.07;77.99;100786.28;5135835;27;20050;-68
2021/06/21 08:20:13;;;;;;;9.88;6.30;;;18.10;99.90;;;18.57;77.62;100858.50;5117100;27;20054;-69
2021/06/21 08:22:42;;;;;;;7.70;6.28;;;18.30;99.90;;;18.46;77.02;100863.41;5135478;27;20039;-69
2021/06/21 08:25:11;;;;;;;6.45;5.70;;;18.20;99.90;;;18.49;77.08;100865.94;5117158;27;20385;-69
2021/06/21 08:27:42;;;;;;;8.40;5.82;;;18.20;99.90;;;18.50;77.61;100875.75;5135749;27;20050;-69
2021/06/21 08:30:12;;;;;;;7.00;6.07;;;18.20;99.90;;;18.47;76.98;100877.66;5135552;27;20488;-69
2021/06/21 08:32:41;;;;;;;6.38;5.70;;;18.20;99.90;;;18.49;77.38;100884.69;5135185;27;20047;-68
2021/06/21 08:35:11;;;;;;;6.93;5.72;;;18.20;99.90;;;18.45;77.69;100887.53;5135159;27;20092;-69
2021/06/21 08:37:39;;;;;;;7.07;5.63;;;18.20;99.90;;;18.53;77.64;100875.63;5116934;27;20043;-69
2021/06/21 08:40:10;;;;;;;8.77;6.72;;;18.20;99.90;;;18.50;77.81;100883.78;5135145;27;20039;-69
2021/06/21 08:42:40;;;;;;;9.32;6.10;;;18.20;99.90;;;18.53;77.95;100883.66;5135367;27;20043;-68
2021/06/21 08:45:12;;;;;;;9.85;7.03;;;18.20;99.90;;;18.59;77.91;100887.91;5135016;27;20476;-68
2021/06/21 08:47:40;;;;;;;10.93;5.65;;;18.30;99.90;;;18.54;77.43;100884.53;5135079;27;20096;-69
2021/06/21 08:50:13;;;;;;;6.82;5.45;;;18.30;99.90;;;18.48;77.62;100884.78;5135118;27;20070;-68
2021/06/21 08:52:43;;;;;;;8.80;6.00;;;18.30;99.90;;;18.66;77.79;100897.50;5134852;27;20116;-68
2021/06/21 08:55:13;;;;;;;8.25;5.13;;;18.30;99.90;;;18.69;77.64;100898.25;5135093;27;20076;-68
2021/06/21 08:57:47;;;;;;;10.05;5.60;;;18.40;99.90;;;18.01;77.00;100796.28;5135195;27;20043;-69
2021/06/21 09:00:18;;;;;;;7.68;5.47;;;18.30;99.90;;;18.58;77.24;100900.44;5134940;27;20074;-69
2021/06/21 09:02:48;;;;;;;7.60;5.15;;;18.30;99.90;;;18.59;77.18;100893.28;5134960;27;20053;-68
2021/06/21 09:05:18;;;;;;;6.55;5.63;;;18.30;99.90;;;18.55;77.40;100895.19;5134945;27;20041;-69
2021/06/21 09:07:48;;;;;;;8.95;5.50;;;18.30;99.90;;;18.55;77.35;100894.31;5134496;27;20047;-68
2021/06/21 09:10:26;;;;;;;6.70;5.10;;;18.30;99.90;;;18.46;77.38;100889.31;5134737;27;20042;-69
2021/06/21 09:13:09;;;;;;;6.80;5.20;;;18.20;99.90;;;18.45;77.37;100888.41;5134316;27;20492;-68
2021/06/21 09:15:40;;;;;;;7.82;5.10;;;18.20;99.90;;;18.50;77.07;100894.50;5116221;27;20054;-68
2021/06/21 09:18:39;;;;;;;6.55;4.97;;;18.20;99.90;;;18.43;77.71;100890.28;5134688;27;20537;-68
2021/06/21 09:21:29;;;;;;;5.95;5.03;;;18.20;99.90;;;18.51;77.63;100893.56;5050971;28;20048;-69
2021/06/21 09:24:18;;;;;;;6.45;5.30;;;18.20;99.90;;;18.49;77.40;100902.56;5134543;27;20061;-69
2021/06/21 09:26:49;;;;;;;5.22;4.65;;;18.20;99.90;;;18.49;76.84;100905.25;5134495;27;20031;-69
2021/06/21 09:29:34;;;;;;;6.43;5.40;;;18.20;99.90;;;18.41;77.32;100902.81;5134220;27;20051;-68
2021/06/21 09:32:45;;;;;;;5.25;4.75;;;18.10;99.90;;;18.46;77.37;100906.25;5134076;27;20047;-68
2021/06/21 09:35:39;;;;;;;7.15;4.60;;;18.20;99.90;;;18.45;77.73;100900.94;5134329;27;20062;-68
2021/06/21 09:38:16;;;;;;;6.32;4.43;;;18.10;99.90;;;18.40;77.27;100902.88;5134075;27;20084;-68
2021/06/21 09:40:50;;;;;;;6.47;5.20;;;18.20;99.90;;;18.35;77.80;100903.03;5134135;27;20400;-68
2021/06/21 09:43:26;;;;;;;5.85;4.80;;;18.10;99.90;;;18.14;78.08;100881.53;5134006;27;20039;-69
2021/06/21 09:46:12;;;;;;;7.22;5.28;;;18.10;99.90;;;18.34;77.84;100901.31;5134174;27;20062;-69
2021/06/21 09:48:43;;;;;;;6.88;5.22;;;18.10;99.90;;;18.32;77.80;100907.63;5133956;27;20390;-69
2021/06/21 09:51:26;;;;;;;5.35;4.85;;;18.10;99.90;;;18.27;77.76;100913.19;5115653;27;20051;-68
2021/06/21 09:54:02;;;;;;;5.53;4.75;;;18.00;99.90;;;18.31;77.78;100919.28;5133882;27;20099;-68
2021/06/21 09:56:37;;;;;;;5.07;4.45;;;18.00;99.90;;;18.22;77.64;100919.59;5133858;27;20082;-69
2021/06/21 09:59:24;;;;;;;5.15;4.50;;;17.90;99.90;;;17.88;78.16;100850.31;5134056;27;20043;-69
2021/06/21 10:02:11;;;;;;;5.80;4.45;;;18.00;99.90;;;18.27;77.96;100921.22;5133848;27;20051;-69
2021/06/21 10:04:41;;;;;;;5.95;4.50;;;18.00;99.90;;;17.76;77.89;100832.88;5133931;28;20461;-69
2021/06/21 10:07:30;;;;;;;5.38;4.57;;;18.00;99.90;;;18.20;77.64;100916.09;5133974;28;20050;-69
2021/06/21 10:10:01;;;;;;;5.90;4.85;;;18.00;99.90;;;18.26;76.98;100915.88;5133667;28;20050;-69
2021/06/21 10:12:30;;;;;;;5.63;4.05;;;18.00;99.90;;;18.21;77.79;100931.25;5133335;28;20054;-68
2021/06/21 10:14:59;;;;;;;5.40;4.88;;;18.00;99.90;;;18.27;77.44;100925.69;5133800;28;20066;-68
2021/06/21 10:17:30;;;;;;;6.63;4.50;;;18.00;99.90;;;18.19;77.50;100936.66;5115065;28;20047;-68
2021/06/21 10:19:59;;;;;;;6.28;4.28;;;17.90;99.90;;;18.10;77.79;100912.84;5133847;28;20384;-68
2021/06/21 10:22:28;;;;;;;5.80;4.57;;;18.00;99.90;;;18.27;77.69;100931.91;5133689;28;20441;-68
2021/06/21 10:24:59;;;;;;;7.15;4.75;;;18.10;99.90;;;18.23;77.96;100934.75;5116374;27;20088;-68
2021/06/21 10:27:30;;;;;;;5.88;4.47;;;18.00;99.90;;;18.17;78.22;100935.84;5119150;27;20051;-69
2021/06/21 10:30:00;;;;;;;6.13;4.38;;;18.00;99.90;;;17.66;78.61;100835.88;5137647;27;20039;-69